sensor_id;sensor_type;location;lat;lon;timestamp;temperature;humidity
9103;DHT22;4587;51.434;6.788;2023-02-15T00:00:26;5.70;99.90
9103;DHT22;4587;51.434;6.788;2023-02-15T00:02:51;5.50;99.90
9103;DHT22;4587;51.434;6.788;2023-02-15T00:05:17;5.50;99.90
9103;DHT22;4587;51.434;6.788;2023-02-15T00:07:43;5.40;99.90
9103;DHT22;4587;51.434;6.788;2023-02-15T00:10:08;5.40;99.90
9103;DHT22;4587;51.434;6.788;2023-02-15T00:12:34;5.40;99.90
9103;DHT22;4587;51.434;6.788;2023-02-15T00:15:00;5.40;99.90
9103;DHT22;4587;51.434;6.788;2023-02-15T00:17:28;5.40;99.90
9103;DHT22;4587;51.434;6.788;2023-02-15T00:19:54;5.40;99.90
9103;DHT22;4587;51.434;6.788;2023-02-15T00:22:20;5.40;99.90
9103;DHT22;4587;51.434;6.788;2023-02-15T00:24:45;5.50;99.90
9103;DHT22;4587;51.434;6.788;2023-02-15T00:27:11;5.40;99.90
9103;DHT22;4587;51.434;6.788;2023-02-15T00:29:37;5.40;99.90
9103;DHT22;4587;51.434;6.788;2023-02-15T00:32:02;5.30;99.90
9103;DHT22;4587;51.434;6.788;2023-02-15T00:34:28;5.40;99.90
9103;DHT22;4587;51.434;6.788;2023-02-15T00:36:54;5.50;99.90
9103;DHT22;4587;51.434;6.788;2023-02-15T00:39:20;5.50;99.90
9103;DHT22;4587;51.434;6.788;2023-02-15T00:41:46;5.50;99.90
9103;DHT22;4587;51.434;6.788;2023-02-15T00:44:13;5.50;99.90
9103;DHT22;4587;51.434;6.788;2023-02-15T00:46:38;5.40;99.90
9103;DHT22;4587;51.434;6.788;2023-02-15T00:49:04;5.30;99.90
9103;DHT22;4587;51.434;6.788;2023-02-15T00:51:30;5.40;99.90
9103;DHT22;4587;51.434;6.788;2023-02-15T00:53:56;5.40;99.90
9103;DHT22;4587;51.434;6.788;2023-02-15T00:56:22;5.50;99.90
9103;DHT22;4587;51.434;6.788;2023-02-15T00:58:47;5.60;99.90
9103;DHT22;4587;51.434;6.788;2023-02-15T01:01:16;5.50;99.90
9103;DHT22;4587;51.434;6.788;2023-02-15T01:03:42;5.30;99.90
9103;DHT22;4587;51.434;6.788;2023-02-15T01:06:09;5.40;99.90
9103;DHT22;4587;51.434;6.788;2023-02-15T01:08:35;5.30;99.90
9103;DHT22;4587;51.434;6.788;2023-02-15T01:11:05;5.20;99.90
9103;DHT22;4587;51.434;6.788;2023-02-15T01:13:32;5.20;99.90
9103;DHT22;4587;51.434;6.788;2023-02-15T01:15:57;5.10;99.90
9103;DHT22;4587;51.434;6.788;2023-02-15T01:18:23;5.10;99.90
9103;DHT22;4587;51.434;6.788;2023-02-15T01:20:49;5.00;99.90
9103;DHT22;4587;51.434;6.788;2023-02-15T01:23:15;5.00;99.90
9103;DHT22;4587;51.434;6.788;2023-02-15T01:25:40;5.00;99.90
9103;DHT22;4587;51.434;6.788;2023-02-15T01:28:06;5.00;99.90
9103;DHT22;4587;51.434;6.788;2023-02-15T01:30:32;4.90;99.90
9103;DHT22;4587;51.434;6.788;2023-02-15T01:32:58;4.80;99.90
9103;DHT22;4587;51.434;6.788;2023-02-15T01:35:26;5.00;99.90
9103;DHT22;4587;51.434;6.788;2023-02-15T01:37:51;5.00;99.90
9103;DHT22;4587;51.434;6.788;2023-02-15T01:40:18;4.90;99.90
9103;DHT22;4587;51.434;6.788;2023-02-15T01:42:44;4.80;99.90
9103;DHT22;4587;51.434;6.788;2023-02-15T01:45:29;4.80;99.90
9103;DHT22;4587;51.434;6.788;2023-02-15T01:48:05;4.90;99.90
9103;DHT22;4587;51.434;6.788;2023-02-15T01:50:37;4.80;99.90
9103;DHT22;4587;51.434;6.788;2023-02-15T01:55:56;4.70;99.90
9103;DHT22;4587;51.434;6.788;2023-02-15T01:58:25;4.60;99.90
9103;DHT22;4587;51.434;6.788;2023-02-15T02:00:52;4.60;99.90
9103;DHT22;4587;51.434;6.788;2023-02-15T02:03:24;4.50;99.90
9103;DHT22;4587;51.434;6.788;2023-02-15T02:05:55;4.60;99.90
9103;DHT22;4587;51.434;6.788;2023-02-15T02:08:20;4.60;99.90
9103;DHT22;4587;51.434;6.788;2023-02-15T02:10:46;4.50;99.90
9103;DHT22;4587;51.434;6.788;2023-02-15T02:13:11;4.60;99.90
9103;DHT22;4587;51.434;6.788;2023-02-15T02:15:42;4.50;99.90
9103;DHT22;4587;51.434;6.788;2023-02-15T02:30:18;4.70;99.90
9103;DHT22;4587;51.434;6.788;2023-02-15T02:43:25;4.50;99.90
9103;DHT22;4587;51.434;6.788;2023-02-15T02:45:58;4.50;99.90
9103;DHT22;4587;51.434;6.788;2023-02-15T02:48:29;4.50;99.90
9103;DHT22;4587;51.434;6.788;2023-02-15T02:50:54;4.50;99.90
9103;DHT22;4587;51.434;6.788;2023-02-15T02:53:20;4.50;99.90
9103;DHT22;4587;51.434;6.788;2023-02-15T02:56:41;4.60;99.90
9103;DHT22;4587;51.434;6.788;2023-02-15T02:59:04;4.60;99.90
9103;DHT22;4587;51.434;6.788;2023-02-15T03:01:52;4.60;99.90
9103;DHT22;4587;51.434;6.788;2023-02-15T03:04:22;4.80;99.90
9103;DHT22;4587;51.434;6.788;2023-02-15T03:06:58;4.60;99.90
9103;DHT22;4587;51.434;6.788;2023-02-15T03:09:39;4.40;99.90
9103;DHT22;4587;51.434;6.788;2023-02-15T03:12:11;4.40;99.90
9103;DHT22;4587;51.434;6.788;2023-02-15T03:14:40;4.40;99.90
9103;DHT22;4587;51.434;6.788;2023-02-15T03:17:07;4.40;99.90
9103;DHT22;4587;51.434;6.788;2023-02-15T03:19:36;4.40;99.90
9103;DHT22;4587;51.434;6.788;2023-02-15T03:22:15;4.50;99.90
9103;DHT22;4587;51.434;6.788;2023-02-15T03:25:11;4.40;99.90
9103;DHT22;4587;51.434;6.788;2023-02-15T03:27:45;4.30;99.90
9103;DHT22;4587;51.434;6.788;2023-02-15T03:30:11;4.30;99.90
9103;DHT22;4587;51.434;6.788;2023-02-15T03:32:39;4.40;99.90
9103;DHT22;4587;51.434;6.788;2023-02-15T03:35:06;4.30;99.90
9103;DHT22;4587;51.434;6.788;2023-02-15T03:37:42;4.30;99.90
9103;DHT22;4587;51.434;6.788;2023-02-15T03:40:39;4.40;99.90
9103;DHT22;4587;51.434;6.788;2023-02-15T03:43:49;4.40;99.90
9103;DHT22;4587;51.434;6.788;2023-02-15T03:46:28;4.40;99.90
9103;DHT22;4587;51.434;6.788;2023-02-15T03:49:05;4.30;99.90
9103;DHT22;4587;51.434;6.788;2023-02-15T03:51:36;4.20;99.90
9103;DHT22;4587;51.434;6.788;2023-02-15T03:54:23;4.10;99.90
9103;DHT22;4587;51.434;6.788;2023-02-15T03:57:10;4.20;99.90
9103;DHT22;4587;51.434;6.788;2023-02-15T03:59:55;4.10;99.90
9103;DHT22;4587;51.434;6.788;2023-02-15T04:03:23;4.10;99.90
9103;DHT22;4587;51.434;6.788;2023-02-15T04:05:51;4.00;99.90
9103;DHT22;4587;51.434;6.788;2023-02-15T04:08:17;4.00;99.90
9103;DHT22;4587;51.434;6.788;2023-02-15T04:10:42;4.00;99.90
9103;DHT22;4587;51.434;6.788;2023-02-15T04:13:18;4.00;99.90
9103;DHT22;4587;51.434;6.788;2023-02-15T04:15:44;4.00;99.90
9103;DHT22;4587;51.434;6.788;2023-02-15T04:18:29;4.00;99.90
9103;DHT22;4587;51.434;6.788;2023-02-15T04:21:13;4.00;99.90
9103;DHT22;4587;51.434;6.788;2023-02-15T04:23:57;4.00;99.90
9103;DHT22;4587;51.434;6.788;2023-02-15T04:26:41;4.00;99.90
9103;DHT22;4587;51.434;6.788;2023-02-15T04:29:07;3.90;99.90
9103;DHT22;4587;51.434;6.788;2023-02-15T04:31:32;3.90;99.90
9103;DHT22;4587;51.434;6.788;2023-02-15T04:33:58;3.90;99.90
9103;DHT22;4587;51.434;6.788;2023-02-15T04:36:23;3.90;99.90
9103;DHT22;4587;51.434;6.788;2023-02-15T04:38:49;3.90;99.90
9103;DHT22;4587;51.434;6.788;2023-02-15T04:41:14;3.90;99.90
9103;DHT22;4587;51.434;6.788;2023-02-15T04:43:40;3.80;99.90
9103;DHT22;4587;51.434;6.788;2023-02-15T04:46:05;3.80;99.90
9103;DHT22;4587;51.434;6.788;2023-02-15T04:48:31;3.80;99.90
9103;DHT22;4587;51.434;6.788;2023-02-15T04:50:57;3.70;99.90
9103;DHT22;4587;51.434;6.788;2023-02-15T04:53:22;3.70;99.90
9103;DHT22;4587;51.434;6.788;2023-02-15T04:55:48;3.80;99.90
9103;DHT22;4587;51.434;6.788;2023-02-15T04:58:13;3.80;99.90
9103;DHT22;4587;51.434;6.788;2023-02-15T05:00:39;3.80;99.90
9103;DHT22;4587;51.434;6.788;2023-02-15T05:03:04;3.80;99.90
9103;DHT22;4587;51.434;6.788;2023-02-15T05:05:30;3.80;99.90
9103;DHT22;4587;51.434;6.788;2023-02-15T05:07:55;3.80;99.90
9103;DHT22;4587;51.434;6.788;2023-02-15T05:10:21;3.90;99.90
9103;DHT22;4587;51.434;6.788;2023-02-15T05:12:46;3.90;99.90
9103;DHT22;4587;51.434;6.788;2023-02-15T05:15:12;3.80;99.90
9103;DHT22;4587;51.434;6.788;2023-02-15T05:17:38;3.80;99.90
9103;DHT22;4587;51.434;6.788;2023-02-15T05:20:04;3.80;99.90
9103;DHT22;4587;51.434;6.788;2023-02-15T05:22:30;3.70;99.90
9103;DHT22;4587;51.434;6.788;2023-02-15T05:24:55;3.70;99.90
9103;DHT22;4587;51.434;6.788;2023-02-15T05:27:39;3.90;99.90
9103;DHT22;4587;51.434;6.788;2023-02-15T05:30:23;3.80;99.90
9103;DHT22;4587;51.434;6.788;2023-02-15T05:32:49;3.70;99.90
9103;DHT22;4587;51.434;6.788;2023-02-15T05:35:15;3.70;99.90
9103;DHT22;4587;51.434;6.788;2023-02-15T05:37:41;3.90;99.90
9103;DHT22;4587;51.434;6.788;2023-02-15T05:40:07;3.80;99.90
9103;DHT22;4587;51.434;6.788;2023-02-15T05:42:33;3.80;99.90
9103;DHT22;4587;51.434;6.788;2023-02-15T05:44:59;3.80;99.90
9103;DHT22;4587;51.434;6.788;2023-02-15T05:47:24;3.80;99.90
9103;DHT22;4587;51.434;6.788;2023-02-15T05:49:50;3.70;99.90
9103;DHT22;4587;51.434;6.788;2023-02-15T05:52:15;3.80;99.90
9103;DHT22;4587;51.434;6.788;2023-02-15T05:54:41;3.70;99.90
9103;DHT22;4587;51.434;6.788;2023-02-15T05:57:06;3.80;99.90
9103;DHT22;4587;51.434;6.788;2023-02-15T05:59:32;3.80;99.90
9103;DHT22;4587;51.434;6.788;2023-02-15T06:01:58;3.80;99.90
9103;DHT22;4587;51.434;6.788;2023-02-15T06:04:23;3.90;99.90
9103;DHT22;4587;51.434;6.788;2023-02-15T06:06:49;3.80;99.90
9103;DHT22;4587;51.434;6.788;2023-02-15T06:09:14;3.80;99.90
9103;DHT22;4587;51.434;6.788;2023-02-15T06:11:40;3.70;99.90
9103;DHT22;4587;51.434;6.788;2023-02-15T06:14:06;3.70;99.90
9103;DHT22;4587;51.434;6.788;2023-02-15T06:16:31;3.70;99.90
9103;DHT22;4587;51.434;6.788;2023-02-15T06:18:57;3.80;99.90
9103;DHT22;4587;51.434;6.788;2023-02-15T06:21:24;3.80;99.90
9103;DHT22;4587;51.434;6.788;2023-02-15T06:23:49;3.80;99.90
9103;DHT22;4587;51.434;6.788;2023-02-15T06:26:15;3.80;99.90
9103;DHT22;4587;51.434;6.788;2023-02-15T06:28:40;3.80;99.90
9103;DHT22;4587;51.434;6.788;2023-02-15T06:31:06;3.80;99.90
9103;DHT22;4587;51.434;6.788;2023-02-15T06:33:32;3.90;99.90
9103;DHT22;4587;51.434;6.788;2023-02-15T06:35:59;3.90;99.90
9103;DHT22;4587;51.434;6.788;2023-02-15T06:38:25;3.90;99.90
9103;DHT22;4587;51.434;6.788;2023-02-15T06:40:51;3.80;99.90
9103;DHT22;4587;51.434;6.788;2023-02-15T06:43:17;3.80;99.90
9103;DHT22;4587;51.434;6.788;2023-02-15T06:45:42;3.80;99.90
9103;DHT22;4587;51.434;6.788;2023-02-15T06:48:08;3.70;99.90
9103;DHT22;4587;51.434;6.788;2023-02-15T06:50:34;3.80;99.90
9103;DHT22;4587;51.434;6.788;2023-02-15T06:52:59;3.70;99.90
9103;DHT22;4587;51.434;6.788;2023-02-15T06:55:25;3.80;99.90
9103;DHT22;4587;51.434;6.788;2023-02-15T06:57:51;3.90;99.90
9103;DHT22;4587;51.434;6.788;2023-02-15T07:00:17;3.90;99.90
9103;DHT22;4587;51.434;6.788;2023-02-15T07:02:44;3.80;99.90
9103;DHT22;4587;51.434;6.788;2023-02-15T07:05:09;3.80;99.90
9103;DHT22;4587;51.434;6.788;2023-02-15T07:07:35;3.90;99.90
9103;DHT22;4587;51.434;6.788;2023-02-15T07:10:02;4.00;99.90
9103;DHT22;4587;51.434;6.788;2023-02-15T07:12:28;4.10;99.90
9103;DHT22;4587;51.434;6.788;2023-02-15T07:15:17;4.20;99.90
9103;DHT22;4587;51.434;6.788;2023-02-15T07:17:43;4.10;99.90
9103;DHT22;4587;51.434;6.788;2023-02-15T07:20:12;4.10;99.90
9103;DHT22;4587;51.434;6.788;2023-02-15T07:22:38;4.00;99.90
9103;DHT22;4587;51.434;6.788;2023-02-15T07:25:05;4.00;99.90
9103;DHT22;4587;51.434;6.788;2023-02-15T07:27:31;4.00;99.90
9103;DHT22;4587;51.434;6.788;2023-02-15T07:29:57;3.90;99.90
9103;DHT22;4587;51.434;6.788;2023-02-15T07:32:22;4.20;99.90
9103;DHT22;4587;51.434;6.788;2023-02-15T07:34:48;4.60;99.90
9103;DHT22;4587;51.434;6.788;2023-02-15T07:37:13;5.40;99.90
9103;DHT22;4587;51.434;6.788;2023-02-15T07:39:39;6.20;99.90
9103;DHT22;4587;51.434;6.788;2023-02-15T07:42:05;6.80;99.90
9103;DHT22;4587;51.434;6.788;2023-02-15T07:44:31;7.50;99.90
9103;DHT22;4587;51.434;6.788;2023-02-15T07:46:57;8.10;99.90
9103;DHT22;4587;51.434;6.788;2023-02-15T07:49:22;8.60;99.90
9103;DHT22;4587;51.434;6.788;2023-02-15T07:51:48;9.00;99.90
9103;DHT22;4587;51.434;6.788;2023-02-15T07:54:13;9.20;99.90
9103;DHT22;4587;51.434;6.788;2023-02-15T07:56:39;9.20;99.90
9103;DHT22;4587;51.434;6.788;2023-02-15T07:59:05;9.30;99.90
9103;DHT22;4587;51.434;6.788;2023-02-15T08:01:39;8.80;99.90
9103;DHT22;4587;51.434;6.788;2023-02-15T08:04:06;8.30;99.90
9103;DHT22;4587;51.434;6.788;2023-02-15T08:06:35;8.30;99.90
9103;DHT22;4587;51.434;6.788;2023-02-15T08:09:04;9.10;99.90
9103;DHT22;4587;51.434;6.788;2023-02-15T08:11:32;10.20;99.90
9103;DHT22;4587;51.434;6.788;2023-02-15T08:19:09;11.70;99.90
9103;DHT22;4587;51.434;6.788;2023-02-15T08:21:38;12.00;99.90
9103;DHT22;4587;51.434;6.788;2023-02-15T08:24:04;12.30;99.90
9103;DHT22;4587;51.434;6.788;2023-02-15T08:26:31;12.40;99.90
9103;DHT22;4587;51.434;6.788;2023-02-15T08:28:57;12.70;99.90
9103;DHT22;4587;51.434;6.788;2023-02-15T08:31:23;12.90;99.90
9103;DHT22;4587;51.434;6.788;2023-02-15T08:33:50;13.30;99.90
9103;DHT22;4587;51.434;6.788;2023-02-15T08:36:19;13.60;99.90
9103;DHT22;4587;51.434;6.788;2023-02-15T08:38:45;13.50;99.90
9103;DHT22;4587;51.434;6.788;2023-02-15T08:41:44;13.00;99.90
9103;DHT22;4587;51.434;6.788;2023-02-15T08:44:05;12.90;99.90
9103;DHT22;4587;51.434;6.788;2023-02-15T08:46:33;13.10;99.90
9103;DHT22;4587;51.434;6.788;2023-02-15T08:49:00;13.50;99.90
9103;DHT22;4587;51.434;6.788;2023-02-15T08:51:36;13.70;99.90
9103;DHT22;4587;51.434;6.788;2023-02-15T08:54:08;13.70;99.90
9103;DHT22;4587;51.434;6.788;2023-02-15T08:56:39;13.60;99.90
9103;DHT22;4587;51.434;6.788;2023-02-15T08:59:06;13.70;99.90
9103;DHT22;4587;51.434;6.788;2023-02-15T09:01:34;13.50;99.90
9103;DHT22;4587;51.434;6.788;2023-02-15T09:04:02;13.80;99.90
9103;DHT22;4587;51.434;6.788;2023-02-15T09:06:29;14.00;99.90
9103;DHT22;4587;51.434;6.788;2023-02-15T09:08:56;14.10;99.60
9103;DHT22;4587;51.434;6.788;2023-02-15T09:11:24;13.90;99.80
9103;DHT22;4587;51.434;6.788;2023-02-15T09:13:53;14.00;99.70
9103;DHT22;4587;51.434;6.788;2023-02-15T09:16:20;14.20;99.50
9103;DHT22;4587;51.434;6.788;2023-02-15T09:18:46;13.80;99.50
9103;DHT22;4587;51.434;6.788;2023-02-15T09:21:17;13.90;99.70
9103;DHT22;4587;51.434;6.788;2023-02-15T09:23:44;14.20;99.70
9103;DHT22;4587;51.434;6.788;2023-02-15T09:26:13;14.30;99.50
9103;DHT22;4587;51.434;6.788;2023-02-15T09:28:39;14.60;99.10
9103;DHT22;4587;51.434;6.788;2023-02-15T09:31:26;14.90;98.40
9103;DHT22;4587;51.434;6.788;2023-02-15T09:33:52;15.00;97.90
9103;DHT22;4587;51.434;6.788;2023-02-15T09:36:30;15.10;97.40
9103;DHT22;4587;51.434;6.788;2023-02-15T09:38:58;14.90;97.20
9103;DHT22;4587;51.434;6.788;2023-02-15T09:55:38;14.80;96.80
9103;DHT22;4587;51.434;6.788;2023-02-15T10:08:52;11.30;99.90
9103;DHT22;4587;51.434;6.788;2023-02-15T10:16:58;10.80;99.90
9103;DHT22;4587;51.434;6.788;2023-02-15T10:22:36;10.70;99.90
9103;DHT22;4587;51.434;6.788;2023-02-15T10:27:50;10.80;99.90
9103;DHT22;4587;51.434;6.788;2023-02-15T10:30:25;10.80;99.90
9103;DHT22;4587;51.434;6.788;2023-02-15T10:33:00;10.80;99.90
9103;DHT22;4587;51.434;6.788;2023-02-15T10:44:13;10.80;99.90
9103;DHT22;4587;51.434;6.788;2023-02-15T10:46:53;10.90;99.90
9103;DHT22;4587;51.434;6.788;2023-02-15T10:49:32;10.80;99.90
9103;DHT22;4587;51.434;6.788;2023-02-15T10:55:18;10.90;99.90
9103;DHT22;4587;51.434;6.788;2023-02-15T11:00:45;11.10;99.90
9103;DHT22;4587;51.434;6.788;2023-02-15T11:03:28;11.10;99.90
9103;DHT22;4587;51.434;6.788;2023-02-15T11:06:08;11.20;99.90
9103;DHT22;4587;51.434;6.788;2023-02-15T11:09:01;11.20;99.90
9103;DHT22;4587;51.434;6.788;2023-02-15T11:11:36;11.20;99.90
9103;DHT22;4587;51.434;6.788;2023-02-15T11:14:14;11.30;99.90
9103;DHT22;4587;51.434;6.788;2023-02-15T11:16:45;11.40;99.90
9103;DHT22;4587;51.434;6.788;2023-02-15T11:19:17;11.50;99.90
9103;DHT22;4587;51.434;6.788;2023-02-15T11:21:48;11.60;99.90
9103;DHT22;4587;51.434;6.788;2023-02-15T11:24:17;11.60;99.90
9103;DHT22;4587;51.434;6.788;2023-02-15T11:27:00;11.50;99.90
9103;DHT22;4587;51.434;6.788;2023-02-15T11:32:23;11.60;99.90
9103;DHT22;4587;51.434;6.788;2023-02-15T11:35:18;11.60;99.90
9103;DHT22;4587;51.434;6.788;2023-02-15T11:38:14;11.60;99.90
9103;DHT22;4587;51.434;6.788;2023-02-15T11:40:47;11.70;99.90
9103;DHT22;4587;51.434;6.788;2023-02-15T11:43:33;11.70;99.90
9103;DHT22;4587;51.434;6.788;2023-02-15T11:46:01;11.70;99.90
9103;DHT22;4587;51.434;6.788;2023-02-15T11:48:30;11.70;99.90
9103;DHT22;4587;51.434;6.788;2023-02-15T11:50:56;11.70;99.90
9103;DHT22;4587;51.434;6.788;2023-02-15T11:53:23;11.70;99.90
9103;DHT22;4587;51.434;6.788;2023-02-15T11:55:53;11.70;99.90
9103;DHT22;4587;51.434;6.788;2023-02-15T12:01:09;11.70;99.90
9103;DHT22;4587;51.434;6.788;2023-02-15T12:03:47;11.80;99.90
9103;DHT22;4587;51.434;6.788;2023-02-15T12:09:06;11.80;99.90
9103;DHT22;4587;51.434;6.788;2023-02-15T12:11:37;11.90;99.90
9103;DHT22;4587;51.434;6.788;2023-02-15T12:14:09;11.90;99.90
9103;DHT22;4587;51.434;6.788;2023-02-15T12:16:49;11.90;99.90
9103;DHT22;4587;51.434;6.788;2023-02-15T12:21:49;12.10;99.90
9103;DHT22;4587;51.434;6.788;2023-02-15T12:24:23;12.10;99.90
9103;DHT22;4587;51.434;6.788;2023-02-15T12:29:32;12.30;99.90
9103;DHT22;4587;51.434;6.788;2023-02-15T12:32:00;12.40;99.90
9103;DHT22;4587;51.434;6.788;2023-02-15T12:34:29;12.40;99.90
9103;DHT22;4587;51.434;6.788;2023-02-15T12:36:57;12.50;99.90
9103;DHT22;4587;51.434;6.788;2023-02-15T12:39:27;12.70;99.90
9103;DHT22;4587;51.434;6.788;2023-02-15T12:44:27;12.80;99.90
9103;DHT22;4587;51.434;6.788;2023-02-15T12:49:42;12.90;99.90
9103;DHT22;4587;51.434;6.788;2023-02-15T12:54:43;13.00;99.90
9103;DHT22;4587;51.434;6.788;2023-02-15T12:57:28;13.00;99.90
9103;DHT22;4587;51.434;6.788;2023-02-15T13:00:02;13.00;99.90
9103;DHT22;4587;51.434;6.788;2023-02-15T13:02:50;13.00;99.90
9103;DHT22;4587;51.434;6.788;2023-02-15T13:05:18;13.00;99.90
9103;DHT22;4587;51.434;6.788;2023-02-15T13:07:51;13.00;99.90
9103;DHT22;4587;51.434;6.788;2023-02-15T13:10:28;13.00;99.90
9103;DHT22;4587;51.434;6.788;2023-02-15T13:12:55;13.10;99.90
9103;DHT22;4587;51.434;6.788;2023-02-15T13:15:28;13.20;99.90
9103;DHT22;4587;51.434;6.788;2023-02-15T13:17:57;13.20;99.90
9103;DHT22;4587;51.434;6.788;2023-02-15T13:20:23;13.30;99.90
9103;DHT22;4587;51.434;6.788;2023-02-15T13:22:57;13.30;99.70
9103;DHT22;4587;51.434;6.788;2023-02-15T13:25:29;13.40;99.60
9103;DHT22;4587;51.434;6.788;2023-02-15T13:28:01;13.40;99.20
9103;DHT22;4587;51.434;6.788;2023-02-15T13:30:34;13.40;99.30
9103;DHT22;4587;51.434;6.788;2023-02-15T13:33:25;13.40;99.60
9103;DHT22;4587;51.434;6.788;2023-02-15T13:36:29;13.40;99.70
9103;DHT22;4587;51.434;6.788;2023-02-15T13:41:58;13.50;99.50
9103;DHT22;4587;51.434;6.788;2023-02-15T13:47:16;13.60;98.90
9103;DHT22;4587;51.434;6.788;2023-02-15T13:52:54;13.70;98.90
9103;DHT22;4587;51.434;6.788;2023-02-15T13:55:31;13.70;98.50
9103;DHT22;4587;51.434;6.788;2023-02-15T14:01:06;13.70;98.90
9103;DHT22;4587;51.434;6.788;2023-02-15T14:15:07;14.00;97.40
9103;DHT22;4587;51.434;6.788;2023-02-15T14:17:55;14.00;97.30
9103;DHT22;4587;51.434;6.788;2023-02-15T14:31:28;13.80;97.40
9103;DHT22;4587;51.434;6.788;2023-02-15T14:33:56;13.80;97.30
9103;DHT22;4587;51.434;6.788;2023-02-15T14:36:23;13.70;97.50
9103;DHT22;4587;51.434;6.788;2023-02-15T14:39:22;13.60;97.40
9103;DHT22;4587;51.434;6.788;2023-02-15T14:42:24;13.60;97.20
9103;DHT22;4587;51.434;6.788;2023-02-15T14:47:42;13.50;97.40
9103;DHT22;4587;51.434;6.788;2023-02-15T14:58:37;13.30;97.80
9103;DHT22;4587;51.434;6.788;2023-02-15T15:01:07;13.30;98.10
9103;DHT22;4587;51.434;6.788;2023-02-15T15:03:34;13.30;98.40
9103;DHT22;4587;51.434;6.788;2023-02-15T15:06:04;13.30;98.40
9103;DHT22;4587;51.434;6.788;2023-02-15T15:08:37;13.30;98.70
9103;DHT22;4587;51.434;6.788;2023-02-15T15:13:59;13.40;99.20
9103;DHT22;4587;51.434;6.788;2023-02-15T15:19:04;13.40;99.80
9103;DHT22;4587;51.434;6.788;2023-02-15T15:27:42;13.40;99.80
9103;DHT22;4587;51.434;6.788;2023-02-15T15:36:15;13.40;99.90
9103;DHT22;4587;51.434;6.788;2023-02-15T15:49:58;13.00;99.90
9103;DHT22;4587;51.434;6.788;2023-02-15T15:52:24;12.90;99.90
9103;DHT22;4587;51.434;6.788;2023-02-15T15:55:15;12.80;99.90
9103;DHT22;4587;51.434;6.788;2023-02-15T15:57:44;12.80;99.90
9103;DHT22;4587;51.434;6.788;2023-02-15T16:00:34;12.80;99.90
9103;DHT22;4587;51.434;6.788;2023-02-15T16:03:01;12.80;99.90
9103;DHT22;4587;51.434;6.788;2023-02-15T16:05:26;12.60;99.90
9103;DHT22;4587;51.434;6.788;2023-02-15T16:07:52;12.60;99.90
9103;DHT22;4587;51.434;6.788;2023-02-15T16:10:23;12.50;99.90
9103;DHT22;4587;51.434;6.788;2023-02-15T16:12:50;12.40;99.90
9103;DHT22;4587;51.434;6.788;2023-02-15T16:15:22;12.30;99.90
9103;DHT22;4587;51.434;6.788;2023-02-15T16:17:54;12.20;99.90
9103;DHT22;4587;51.434;6.788;2023-02-15T16:20:30;12.10;99.90
9103;DHT22;4587;51.434;6.788;2023-02-15T16:28:54;12.00;99.90
9103;DHT22;4587;51.434;6.788;2023-02-15T16:31:20;11.90;99.90
9103;DHT22;4587;51.434;6.788;2023-02-15T16:33:48;11.80;99.90
9103;DHT22;4587;51.434;6.788;2023-02-15T16:36:25;11.70;99.90
9103;DHT22;4587;51.434;6.788;2023-02-15T16:41:27;11.60;99.90
9103;DHT22;4587;51.434;6.788;2023-02-15T16:43:56;11.50;99.90
9103;DHT22;4587;51.434;6.788;2023-02-15T16:46:32;11.40;99.90
9103;DHT22;4587;51.434;6.788;2023-02-15T16:49:01;11.40;99.90
9103;DHT22;4587;51.434;6.788;2023-02-15T16:51:30;11.30;99.90
9103;DHT22;4587;51.434;6.788;2023-02-15T16:54:07;11.30;99.90
9103;DHT22;4587;51.434;6.788;2023-02-15T16:56:38;11.10;99.90
9103;DHT22;4587;51.434;6.788;2023-02-15T16:59:19;11.10;99.90
9103;DHT22;4587;51.434;6.788;2023-02-15T17:01:46;11.00;99.90
9103;DHT22;4587;51.434;6.788;2023-02-15T17:07:14;11.00;99.90
9103;DHT22;4587;51.434;6.788;2023-02-15T17:09:54;10.90;99.90
9103;DHT22;4587;51.434;6.788;2023-02-15T17:13:00;11.00;99.90
9103;DHT22;4587;51.434;6.788;2023-02-15T17:15:28;10.90;99.90
9103;DHT22;4587;51.434;6.788;2023-02-15T17:17:58;10.80;99.90
9103;DHT22;4587;51.434;6.788;2023-02-15T17:20:25;10.70;99.90
9103;DHT22;4587;51.434;6.788;2023-02-15T17:22:51;10.70;99.90
9103;DHT22;4587;51.434;6.788;2023-02-15T17:25:30;10.70;99.90
9103;DHT22;4587;51.434;6.788;2023-02-15T17:27:58;10.60;99.90
9103;DHT22;4587;51.434;6.788;2023-02-15T17:30:29;10.50;99.90
9103;DHT22;4587;51.434;6.788;2023-02-15T17:32:59;10.50;99.90
9103;DHT22;4587;51.434;6.788;2023-02-15T17:35:30;10.50;99.90
9103;DHT22;4587;51.434;6.788;2023-02-15T17:38:18;10.60;99.90
9103;DHT22;4587;51.434;6.788;2023-02-15T17:40:44;10.50;99.90
9103;DHT22;4587;51.434;6.788;2023-02-15T17:43:10;10.60;99.90
9103;DHT22;4587;51.434;6.788;2023-02-15T17:45:40;10.70;99.90
9103;DHT22;4587;51.434;6.788;2023-02-15T17:48:17;10.60;99.90
9103;DHT22;4587;51.434;6.788;2023-02-15T17:50:44;10.60;99.90
9103;DHT22;4587;51.434;6.788;2023-02-15T17:53:09;10.60;99.90
9103;DHT22;4587;51.434;6.788;2023-02-15T17:55:35;10.60;99.90
9103;DHT22;4587;51.434;6.788;2023-02-15T17:58:23;10.50;99.90
9103;DHT22;4587;51.434;6.788;2023-02-15T18:00:52;10.50;99.90
9103;DHT22;4587;51.434;6.788;2023-02-15T18:03:39;10.40;99.90
9103;DHT22;4587;51.434;6.788;2023-02-15T18:06:24;10.30;99.90
9103;DHT22;4587;51.434;6.788;2023-02-15T18:09:19;10.40;99.90
9103;DHT22;4587;51.434;6.788;2023-02-15T18:12:28;10.40;99.90
9103;DHT22;4587;51.434;6.788;2023-02-15T18:14:55;10.30;99.90
9103;DHT22;4587;51.434;6.788;2023-02-15T18:17:28;10.20;99.90
9103;DHT22;4587;51.434;6.788;2023-02-15T18:19:55;10.10;99.90
9103;DHT22;4587;51.434;6.788;2023-02-15T18:22:21;10.10;99.90
9103;DHT22;4587;51.434;6.788;2023-02-15T18:24:47;10.20;99.90
9103;DHT22;4587;51.434;6.788;2023-02-15T18:27:14;10.10;99.90
9103;DHT22;4587;51.434;6.788;2023-02-15T18:29:40;10.20;99.90
9103;DHT22;4587;51.434;6.788;2023-02-15T18:32:16;10.20;99.90
9103;DHT22;4587;51.434;6.788;2023-02-15T18:34:42;10.10;99.90
9103;DHT22;4587;51.434;6.788;2023-02-15T18:37:15;10.00;99.90
9103;DHT22;4587;51.434;6.788;2023-02-15T18:39:45;10.10;99.90
9103;DHT22;4587;51.434;6.788;2023-02-15T18:42:27;10.20;99.90
9103;DHT22;4587;51.434;6.788;2023-02-15T18:44:55;10.20;99.90
9103;DHT22;4587;51.434;6.788;2023-02-15T18:47:22;10.10;99.90
9103;DHT22;4587;51.434;6.788;2023-02-15T18:49:47;10.00;99.90
9103;DHT22;4587;51.434;6.788;2023-02-15T18:52:19;9.90;99.90
9103;DHT22;4587;51.434;6.788;2023-02-15T18:54:46;9.90;99.90
9103;DHT22;4587;51.434;6.788;2023-02-15T18:57:13;9.90;99.90
9103;DHT22;4587;51.434;6.788;2023-02-15T18:59:39;9.80;99.90
9103;DHT22;4587;51.434;6.788;2023-02-15T19:02:18;9.70;99.90
9103;DHT22;4587;51.434;6.788;2023-02-15T19:04:44;9.70;99.90
9103;DHT22;4587;51.434;6.788;2023-02-15T19:07:25;9.60;99.90
9103;DHT22;4587;51.434;6.788;2023-02-15T19:09:55;9.60;99.90
9103;DHT22;4587;51.434;6.788;2023-02-15T19:12:21;9.60;99.90
9103;DHT22;4587;51.434;6.788;2023-02-15T19:14:47;9.60;99.90
9103;DHT22;4587;51.434;6.788;2023-02-15T19:17:15;9.50;99.90
9103;DHT22;4587;51.434;6.788;2023-02-15T19:19:41;9.50;99.90
9103;DHT22;4587;51.434;6.788;2023-02-15T19:22:15;9.40;99.90
9103;DHT22;4587;51.434;6.788;2023-02-15T19:24:44;9.40;99.90
9103;DHT22;4587;51.434;6.788;2023-02-15T19:27:40;9.30;99.90
9103;DHT22;4587;51.434;6.788;2023-02-15T19:30:21;9.30;99.90
9103;DHT22;4587;51.434;6.788;2023-02-15T19:32:48;9.20;99.90
9103;DHT22;4587;51.434;6.788;2023-02-15T19:35:18;9.10;99.90
9103;DHT22;4587;51.434;6.788;2023-02-15T19:37:48;9.00;99.90
9103;DHT22;4587;51.434;6.788;2023-02-15T19:40:23;9.00;99.90
9103;DHT22;4587;51.434;6.788;2023-02-15T19:42:50;9.00;99.90